sensor_id;sensor_type;location;lat;lon;timestamp;P1;durP1;ratioP1;P2;durP2;ratioP2
73421;SDS011;61637;47.760;-122.022;2023-03-24T00:00:03;3.6;;;0.8;;
73421;SDS011;61637;47.760;-122.022;2023-03-24T00:02:01;4.6;;;0.9;;
73421;SDS011;61637;47.760;-122.022;2023-03-24T00:04:01;6.2;;;0.8;;
73421;SDS011;61637;47.760;-122.022;2023-03-24T00:06:03;3.0;;;0.7;;
73421;SDS011;61637;47.760;-122.022;2023-03-24T00:08:01;4.9;;;0.8;;
73421;SDS011;61637;47.760;-122.022;2023-03-24T00:10:02;2.8;;;0.7;;
73421;SDS011;61637;47.760;-122.022;2023-03-24T00:12:01;2.0;;;0.7;;
73421;SDS011;61637;47.760;-122.022;2023-03-24T00:14:02;3.0;;;0.7;;
73421;SDS011;61637;47.760;-122.022;2023-03-24T00:16:01;3.4;;;0.9;;
73421;SDS011;61637;47.760;-122.022;2023-03-24T00:18:01;3.9;;;0.7;;
73421;SDS011;61637;47.760;-122.022;2023-03-24T00:20:03;5.5;;;0.9;;
73421;SDS011;61637;47.760;-122.022;2023-03-24T00:22:01;3.0;;;0.7;;
73421;SDS011;61637;47.760;-122.022;2023-03-24T00:24:03;4.7;;;1.0;;
73421;SDS011;61637;47.760;-122.022;2023-03-24T00:26:04;3.2;;;0.9;;
73421;SDS011;61637;47.760;-122.022;2023-03-24T00:28:01;3.2;;;0.9;;
73421;SDS011;61637;47.760;-122.022;2023-03-24T00:30:01;3.5;;;0.8;;
73421;SDS011;61637;47.760;-122.022;2023-03-24T00:32:01;3.1;;;0.8;;
73421;SDS011;61637;47.760;-122.022;2023-03-24T00:34:01;3.5;;;0.9;;
73421;SDS011;61637;47.760;-122.022;2023-03-24T00:36:03;3.8;;;0.7;;
73421;SDS011;61637;47.760;-122.022;2023-03-24T00:38:01;3.1;;;0.7;;
73421;SDS011;61637;47.760;-122.022;2023-03-24T00:40:02;2.2;;;0.6;;
73421;SDS011;61637;47.760;-122.022;2023-03-24T00:42:01;2.8;;;0.7;;
73421;SDS011;61637;47.760;-122.022;2023-03-24T00:44:01;3.5;;;0.7;;
73421;SDS011;61637;47.760;-122.022;2023-03-24T00:46:04;3.9;;;0.7;;
73421;SDS011;61637;47.760;-122.022;2023-03-24T00:48:02;4.8;;;0.7;;
73421;SDS011;61637;47.760;-122.022;2023-03-24T00:50:01;2.6;;;0.6;;
73421;SDS011;61637;47.760;-122.022;2023-03-24T00:52:01;4.3;;;0.7;;
73421;SDS011;61637;47.760;-122.022;2023-03-24T00:54:02;2.6;;;0.6;;
73421;SDS011;61637;47.760;-122.022;2023-03-24T00:56:01;2.4;;;0.6;;
73421;SDS011;61637;47.760;-122.022;2023-03-24T00:58:01;2.8;;;0.7;;
73421;SDS011;61637;47.760;-122.022;2023-03-24T01:00:05;2.5;;;0.7;;
73421;SDS011;61637;47.760;-122.022;2023-03-24T01:02:01;2.9;;;0.6;;
73421;SDS011;61637;47.760;-122.022;2023-03-24T01:04:02;2.4;;;0.7;;
73421;SDS011;61637;47.760;-122.022;2023-03-24T01:06:02;3.2;;;0.8;;
73421;SDS011;61637;47.760;-122.022;2023-03-24T01:08:02;3.1;;;0.8;;
73421;SDS011;61637;47.760;-122.022;2023-03-24T01:10:01;2.6;;;0.7;;
73421;SDS011;61637;47.760;-122.022;2023-03-24T01:12:02;2.4;;;0.7;;
73421;SDS011;61637;47.760;-122.022;2023-03-24T01:14:01;2.5;;;0.8;;
73421;SDS011;61637;47.760;-122.022;2023-03-24T01:16:01;2.5;;;0.8;;
73421;SDS011;61637;47.760;-122.022;2023-03-24T01:18:02;2.8;;;0.8;;
73421;SDS011;61637;47.760;-122.022;2023-03-24T01:20:01;4.3;;;0.8;;
73421;SDS011;61637;47.760;-122.022;2023-03-24T01:22:02;2.7;;;0.7;;
73421;SDS011;61637;47.760;-122.022;2023-03-24T01:24:02;3.7;;;0.7;;
73421;SDS011;61637;47.760;-122.022;2023-03-24T01:26:05;2.1;;;0.7;;
73421;SDS011;61637;47.760;-122.022;2023-03-24T01:28:02;2.6;;;0.6;;
73421;SDS011;61637;47.760;-122.022;2023-03-24T01:30:02;2.9;;;0.7;;
73421;SDS011;61637;47.760;-122.022;2023-03-24T01:32:01;2.0;;;0.6;;
73421;SDS011;61637;47.760;-122.022;2023-03-24T01:34:01;2.2;;;0.6;;
73421;SDS011;61637;47.760;-122.022;2023-03-24T01:36:01;1.5;;;0.6;;
73421;SDS011;61637;47.760;-122.022;2023-03-24T01:38:05;3.0;;;1.4;;
73421;SDS011;61637;47.760;-122.022;2023-03-24T01:40:01;1.9;;;0.8;;
73421;SDS011;61637;47.760;-122.022;2023-03-24T01:42:02;1.8;;;0.8;;
73421;SDS011;61637;47.760;-122.022;2023-03-24T01:46:12;2.8;;;0.7;;
73421;SDS011;61637;47.760;-122.022;2023-03-24T01:48:01;1.7;;;0.6;;
73421;SDS011;61637;47.760;-122.022;2023-03-24T01:50:02;2.5;;;0.6;;
73421;SDS011;61637;47.760;-122.022;2023-03-24T01:52:03;4.1;;;1.6;;
73421;SDS011;61637;47.760;-122.022;2023-03-24T01:54:03;3.3;;;1.8;;
73421;SDS011;61637;47.760;-122.022;2023-03-24T01:56:02;4.5;;;2.9;;
73421;SDS011;61637;47.760;-122.022;2023-03-24T01:58:02;4.9;;;2.8;;
73421;SDS011;61637;47.760;-122.022;2023-03-24T02:00:07;5.0;;;2.5;;
73421;SDS011;61637;47.760;-122.022;2023-03-24T02:02:02;4.0;;;2.3;;
73421;SDS011;61637;47.760;-122.022;2023-03-24T02:04:04;5.4;;;3.8;;
73421;SDS011;61637;47.760;-122.022;2023-03-24T02:06:01;7.4;;;6.7;;
73421;SDS011;61637;47.760;-122.022;2023-03-24T02:08:06;8.5;;;7.6;;
73421;SDS011;61637;47.760;-122.022;2023-03-24T02:10:05;7.9;;;6.4;;
73421;SDS011;61637;47.760;-122.022;2023-03-24T02:12:02;11.9;;;10.8;;
73421;SDS011;61637;47.760;-122.022;2023-03-24T02:14:02;13.5;;;12.4;;
73421;SDS011;61637;47.760;-122.022;2023-03-24T02:16:14;12.5;;;11.4;;
73421;SDS011;61637;47.760;-122.022;2023-03-24T02:18:05;12.6;;;11.5;;
73421;SDS011;61637;47.760;-122.022;2023-03-24T02:20:21;11.8;;;10.8;;
73421;SDS011;61637;47.760;-122.022;2023-03-24T02:22:18;11.4;;;10.4;;
73421;SDS011;61637;47.760;-122.022;2023-03-24T02:28:14;10.9;;;9.9;;
73421;SDS011;61637;47.760;-122.022;2023-03-24T02:30:11;12.3;;;11.1;;
73421;SDS011;61637;47.760;-122.022;2023-03-24T02:32:17;12.7;;;11.6;;
73421;SDS011;61637;47.760;-122.022;2023-03-24T02:38:18;10.5;;;8.7;;
73421;SDS011;61637;47.760;-122.022;2023-03-24T02:40:10;7.8;;;6.1;;
73421;SDS011;61637;47.760;-122.022;2023-03-24T02:42:04;13.2;;;8.5;;
73421;SDS011;61637;47.760;-122.022;2023-03-24T02:44:07;14.2;;;12.2;;
73421;SDS011;61637;47.760;-122.022;2023-03-24T02:46:10;14.5;;;12.9;;
73421;SDS011;61637;47.760;-122.022;2023-03-24T02:48:11;14.9;;;12.2;;
73421;SDS011;61637;47.760;-122.022;2023-03-24T02:50:07;13.4;;;12.0;;
73421;SDS011;61637;47.760;-122.022;2023-03-24T02:52:06;14.8;;;12.4;;
73421;SDS011;61637;47.760;-122.022;2023-03-24T02:54:08;16.2;;;13.2;;
73421;SDS011;61637;47.760;-122.022;2023-03-24T02:56:08;15.3;;;11.2;;
73421;SDS011;61637;47.760;-122.022;2023-03-24T02:58:04;14.2;;;11.8;;
73421;SDS011;61637;47.760;-122.022;2023-03-24T03:00:05;12.6;;;10.8;;
73421;SDS011;61637;47.760;-122.022;2023-03-24T03:02:05;11.3;;;10.1;;
73421;SDS011;61637;47.760;-122.022;2023-03-24T03:04:04;13.8;;;8.6;;
73421;SDS011;61637;47.760;-122.022;2023-03-24T03:06:05;11.5;;;7.4;;
73421;SDS011;61637;47.760;-122.022;2023-03-24T03:08:04;10.4;;;7.3;;
73421;SDS011;61637;47.760;-122.022;2023-03-24T03:10:06;9.7;;;6.6;;
73421;SDS011;61637;47.760;-122.022;2023-03-24T03:12:03;8.2;;;4.1;;
73421;SDS011;61637;47.760;-122.022;2023-03-24T03:14:04;9.6;;;4.7;;
73421;SDS011;61637;47.760;-122.022;2023-03-24T03:16:06;10.6;;;3.6;;
73421;SDS011;61637;47.760;-122.022;2023-03-24T03:18:06;10.4;;;3.2;;
73421;SDS011;61637;47.760;-122.022;2023-03-24T03:20:05;7.5;;;4.7;;
73421;SDS011;61637;47.760;-122.022;2023-03-24T03:22:05;9.4;;;6.6;;
73421;SDS011;61637;47.760;-122.022;2023-03-24T03:24:06;10.9;;;4.1;;
73421;SDS011;61637;47.760;-122.022;2023-03-24T03:26:03;13.1;;;6.0;;
73421;SDS011;61637;47.760;-122.022;2023-03-24T03:28:03;11.2;;;5.7;;
73421;SDS011;61637;47.760;-122.022;2023-03-24T03:30:06;11.9;;;5.0;;
73421;SDS011;61637;47.760;-122.022;2023-03-24T03:32:04;11.8;;;7.0;;
73421;SDS011;61637;47.760;-122.022;2023-03-24T03:34:08;8.9;;;3.6;;
73421;SDS011;61637;47.760;-122.022;2023-03-24T03:36:05;8.0;;;3.0;;
73421;SDS011;61637;47.760;-122.022;2023-03-24T03:38:09;10.1;;;4.8;;
73421;SDS011;61637;47.760;-122.022;2023-03-24T03:40:05;14.9;;;9.0;;
73421;SDS011;61637;47.760;-122.022;2023-03-24T03:42:02;13.8;;;12.3;;
73421;SDS011;61637;47.760;-122.022;2023-03-24T03:44:01;15.9;;;12.0;;
73421;SDS011;61637;47.760;-122.022;2023-03-24T03:46:03;14.0;;;12.1;;
73421;SDS011;61637;47.760;-122.022;2023-03-24T03:48:01;13.8;;;12.0;;
73421;SDS011;61637;47.760;-122.022;2023-03-24T03:50:01;13.4;;;10.6;;
73421;SDS011;61637;47.760;-122.022;2023-03-24T03:52:02;15.3;;;11.6;;
73421;SDS011;61637;47.760;-122.022;2023-03-24T03:54:04;13.1;;;11.3;;
73421;SDS011;61637;47.760;-122.022;2023-03-24T03:56:01;14.6;;;11.5;;
73421;SDS011;61637;47.760;-122.022;2023-03-24T03:58:02;15.6;;;11.6;;
73421;SDS011;61637;47.760;-122.022;2023-03-24T04:00:04;11.1;;;7.0;;
73421;SDS011;61637;47.760;-122.022;2023-03-24T04:02:08;8.7;;;5.0;;
73421;SDS011;61637;47.760;-122.022;2023-03-24T04:04:11;10.6;;;4.2;;
73421;SDS011;61637;47.760;-122.022;2023-03-24T04:06:06;9.8;;;2.5;;
73421;SDS011;61637;47.760;-122.022;2023-03-24T04:08:12;8.6;;;2.8;;
73421;SDS011;61637;47.760;-122.022;2023-03-24T04:10:10;12.9;;;7.4;;
73421;SDS011;61637;47.760;-122.022;2023-03-24T04:12:15;18.0;;;10.8;;
73421;SDS011;61637;47.760;-122.022;2023-03-24T04:14:15;13.8;;;8.2;;
73421;SDS011;61637;47.760;-122.022;2023-03-24T04:16:07;13.1;;;8.7;;
73421;SDS011;61637;47.760;-122.022;2023-03-24T04:18:16;12.1;;;9.0;;
73421;SDS011;61637;47.760;-122.022;2023-03-24T04:20:07;14.8;;;9.3;;
73421;SDS011;61637;47.760;-122.022;2023-03-24T04:22:10;14.8;;;10.6;;
73421;SDS011;61637;47.760;-122.022;2023-03-24T04:24:11;14.4;;;12.0;;
73421;SDS011;61637;47.760;-122.022;2023-03-24T04:26:08;15.7;;;11.6;;
73421;SDS011;61637;47.760;-122.022;2023-03-24T04:28:10;16.5;;;11.6;;
73421;SDS011;61637;47.760;-122.022;2023-03-24T04:30:09;17.1;;;12.1;;
73421;SDS011;61637;47.760;-122.022;2023-03-24T04:32:05;15.6;;;13.0;;
73421;SDS011;61637;47.760;-122.022;2023-03-24T04:34:06;14.1;;;12.2;;
73421;SDS011;61637;47.760;-122.022;2023-03-24T04:36:05;14.6;;;12.0;;
73421;SDS011;61637;47.760;-122.022;2023-03-24T04:38:04;13.0;;;11.2;;
73421;SDS011;61637;47.760;-122.022;2023-03-24T04:40:04;13.7;;;10.4;;
73421;SDS011;61637;47.760;-122.022;2023-03-24T04:42:04;12.8;;;11.4;;
73421;SDS011;61637;47.760;-122.022;2023-03-24T04:44:01;14.5;;;12.5;;
73421;SDS011;61637;47.760;-122.022;2023-03-24T04:46:02;15.7;;;12.5;;
73421;SDS011;61637;47.760;-122.022;2023-03-24T04:48:03;15.7;;;12.5;;
73421;SDS011;61637;47.760;-122.022;2023-03-24T04:50:04;16.0;;;13.1;;
73421;SDS011;61637;47.760;-122.022;2023-03-24T04:52:01;14.6;;;12.1;;
73421;SDS011;61637;47.760;-122.022;2023-03-24T04:54:01;18.5;;;13.8;;
73421;SDS011;61637;47.760;-122.022;2023-03-24T04:56:12;14.4;;;11.3;;
73421;SDS011;61637;47.760;-122.022;2023-03-24T04:58:02;14.4;;;10.6;;
73421;SDS011;61637;47.760;-122.022;2023-03-24T05:00:01;15.6;;;10.9;;
73421;SDS011;61637;47.760;-122.022;2023-03-24T05:02:01;12.5;;;11.0;;
73421;SDS011;61637;47.760;-122.022;2023-03-24T05:04:01;13.4;;;8.8;;
73421;SDS011;61637;47.760;-122.022;2023-03-24T05:06:01;11.9;;;7.1;;
73421;SDS011;61637;47.760;-122.022;2023-03-24T05:08:01;12.6;;;7.2;;
73421;SDS011;61637;47.760;-122.022;2023-03-24T05:10:01;11.9;;;6.5;;
73421;SDS011;61637;47.760;-122.022;2023-03-24T05:12:01;12.0;;;6.9;;
73421;SDS011;61637;47.760;-122.022;2023-03-24T05:14:01;11.5;;;6.5;;
73421;SDS011;61637;47.760;-122.022;2023-03-24T05:16:01;9.0;;;3.2;;
73421;SDS011;61637;47.760;-122.022;2023-03-24T05:18:02;10.9;;;3.0;;
73421;SDS011;61637;47.760;-122.022;2023-03-24T05:20:02;10.0;;;3.3;;
73421;SDS011;61637;47.760;-122.022;2023-03-24T05:22:02;9.0;;;2.1;;
73421;SDS011;61637;47.760;-122.022;2023-03-24T05:24:01;13.2;;;8.5;;
73421;SDS011;61637;47.760;-122.022;2023-03-24T05:26:01;15.1;;;8.6;;
73421;SDS011;61637;47.760;-122.022;2023-03-24T05:28:01;14.4;;;9.8;;
73421;SDS011;61637;47.760;-122.022;2023-03-24T05:30:01;11.3;;;8.6;;
73421;SDS011;61637;47.760;-122.022;2023-03-24T05:32:01;14.7;;;10.7;;
73421;SDS011;61637;47.760;-122.022;2023-03-24T05:34:01;14.7;;;10.9;;
73421;SDS011;61637;47.760;-122.022;2023-03-24T05:36:02;13.5;;;10.0;;
73421;SDS011;61637;47.760;-122.022;2023-03-24T05:38:01;12.1;;;9.0;;
73421;SDS011;61637;47.760;-122.022;2023-03-24T05:40:01;14.1;;;8.0;;
73421;SDS011;61637;47.760;-122.022;2023-03-24T05:42:01;12.6;;;7.4;;
73421;SDS011;61637;47.760;-122.022;2023-03-24T05:44:01;14.8;;;11.4;;
73421;SDS011;61637;47.760;-122.022;2023-03-24T05:46:01;12.4;;;10.0;;
73421;SDS011;61637;47.760;-122.022;2023-03-24T05:48:01;19.4;;;11.8;;
73421;SDS011;61637;47.760;-122.022;2023-03-24T05:50:01;15.5;;;12.3;;
73421;SDS011;61637;47.760;-122.022;2023-03-24T05:52:01;18.0;;;12.6;;
73421;SDS011;61637;47.760;-122.022;2023-03-24T05:54:01;17.0;;;13.1;;
73421;SDS011;61637;47.760;-122.022;2023-03-24T05:56:01;18.0;;;11.8;;
73421;SDS011;61637;47.760;-122.022;2023-03-24T05:58:01;17.7;;;14.1;;
73421;SDS011;61637;47.760;-122.022;2023-03-24T06:00:01;16.9;;;12.9;;
73421;SDS011;61637;47.760;-122.022;2023-03-24T06:02:01;15.1;;;11.9;;
73421;SDS011;61637;47.760;-122.022;2023-03-24T06:04:01;18.0;;;12.5;;
73421;SDS011;61637;47.760;-122.022;2023-03-24T06:06:01;16.0;;;12.7;;
73421;SDS011;61637;47.760;-122.022;2023-03-24T06:08:01;16.2;;;11.6;;
73421;SDS011;61637;47.760;-122.022;2023-03-24T06:10:01;16.6;;;10.8;;
73421;SDS011;61637;47.760;-122.022;2023-03-24T06:12:02;16.3;;;11.4;;
73421;SDS011;61637;47.760;-122.022;2023-03-24T06:14:01;14.5;;;11.9;;
73421;SDS011;61637;47.760;-122.022;2023-03-24T06:16:01;17.0;;;11.4;;
73421;SDS011;61637;47.760;-122.022;2023-03-24T06:18:01;12.7;;;10.7;;
73421;SDS011;61637;47.760;-122.022;2023-03-24T06:20:01;14.9;;;10.4;;
73421;SDS011;61637;47.760;-122.022;2023-03-24T06:22:01;15.9;;;10.6;;
73421;SDS011;61637;47.760;-122.022;2023-03-24T06:24:01;14.8;;;9.1;;
73421;SDS011;61637;47.760;-122.022;2023-03-24T06:26:07;14.4;;;7.5;;
73421;SDS011;61637;47.760;-122.022;2023-03-24T06:28:01;14.5;;;5.8;;
73421;SDS011;61637;47.760;-122.022;2023-03-24T06:30:01;16.5;;;6.2;;
73421;SDS011;61637;47.760;-122.022;2023-03-24T06:32:02;16.1;;;6.4;;
73421;SDS011;61637;47.760;-122.022;2023-03-24T06:34:01;11.6;;;4.1;;
73421;SDS011;61637;47.760;-122.022;2023-03-24T06:36:01;11.7;;;2.8;;
73421;SDS011;61637;47.760;-122.022;2023-03-24T06:38:01;9.5;;;4.5;;
73421;SDS011;61637;47.760;-122.022;2023-03-24T06:40:02;10.8;;;4.0;;
73421;SDS011;61637;47.760;-122.022;2023-03-24T06:42:01;12.4;;;3.5;;
73421;SDS011;61637;47.760;-122.022;2023-03-24T06:44:01;12.3;;;3.4;;
73421;SDS011;61637;47.760;-122.022;2023-03-24T06:46:02;11.3;;;2.0;;
73421;SDS011;61637;47.760;-122.022;2023-03-24T06:48:01;8.2;;;1.5;;
73421;SDS011;61637;47.760;-122.022;2023-03-24T06:50:01;9.5;;;1.7;;
73421;SDS011;61637;47.760;-122.022;2023-03-24T06:52:01;11.4;;;2.2;;
73421;SDS011;61637;47.760;-122.022;2023-03-24T06:54:01;11.1;;;2.2;;
73421;SDS011;61637;47.760;-122.022;2023-03-24T06:56:01;14.0;;;3.1;;
73421;SDS011;61637;47.760;-122.022;2023-03-24T06:58:01;11.4;;;2.9;;
73421;SDS011;61637;47.760;-122.022;2023-03-24T07:00:02;13.1;;;2.0;;
73421;SDS011;61637;47.760;-122.022;2023-03-24T07:02:01;10.9;;;2.4;;
73421;SDS011;61637;47.760;-122.022;2023-03-24T07:04:01;11.1;;;2.6;;
73421;SDS011;61637;47.760;-122.022;2023-03-24T07:06:01;9.6;;;2.5;;
73421;SDS011;61637;47.760;-122.022;2023-03-24T07:08:01;11.9;;;1.9;;
73421;SDS011;61637;47.760;-122.022;2023-03-24T07:10:03;10.5;;;2.3;;
73421;SDS011;61637;47.760;-122.022;2023-03-24T07:12:01;12.5;;;3.2;;
73421;SDS011;61637;47.760;-122.022;2023-03-24T07:14:01;11.6;;;2.5;;
73421;SDS011;61637;47.760;-122.022;2023-03-24T07:16:01;13.2;;;2.5;;
73421;SDS011;61637;47.760;-122.022;2023-03-24T07:18:01;11.6;;;2.2;;
73421;SDS011;61637;47.760;-122.022;2023-03-24T07:20:01;11.2;;;2.0;;
73421;SDS011;61637;47.760;-122.022;2023-03-24T07:22:01;8.1;;;1.9;;
73421;SDS011;61637;47.760;-122.022;2023-03-24T07:24:01;12.6;;;1.9;;
73421;SDS011;61637;47.760;-122.022;2023-03-24T07:26:01;8.1;;;1.6;;
73421;SDS011;61637;47.760;-122.022;2023-03-24T07:28:01;11.2;;;1.5;;
73421;SDS011;61637;47.760;-122.022;2023-03-24T07:30:01;9.0;;;1.4;;
73421;SDS011;61637;47.760;-122.022;2023-03-24T07:32:01;8.9;;;1.6;;
73421;SDS011;61637;47.760;-122.022;2023-03-24T07:34:01;11.8;;;2.1;;
73421;SDS011;61637;47.760;-122.022;2023-03-24T07:36:01;8.7;;;2.0;;
73421;SDS011;61637;47.760;-122.022;2023-03-24T07:38:01;7.6;;;2.1;;
73421;SDS011;61637;47.760;-122.022;2023-03-24T07:40:01;13.9;;;4.0;;
73421;SDS011;61637;47.760;-122.022;2023-03-24T07:42:01;12.6;;;7.6;;
73421;SDS011;61637;47.760;-122.022;2023-03-24T07:44:01;15.4;;;9.9;;
73421;SDS011;61637;47.760;-122.022;2023-03-24T07:46:02;15.5;;;10.6;;
73421;SDS011;61637;47.760;-122.022;2023-03-24T07:48:01;17.1;;;11.3;;
73421;SDS011;61637;47.760;-122.022;2023-03-24T07:50:01;14.6;;;10.8;;
73421;SDS011;61637;47.760;-122.022;2023-03-24T07:52:01;14.1;;;10.2;;
73421;SDS011;61637;47.760;-122.022;2023-03-24T07:54:01;16.8;;;11.1;;
73421;SDS011;61637;47.760;-122.022;2023-03-24T07:56:01;15.7;;;12.0;;
73421;SDS011;61637;47.760;-122.022;2023-03-24T07:58:02;15.5;;;11.1;;
73421;SDS011;61637;47.760;-122.022;2023-03-24T08:00:01;15.8;;;12.4;;
73421;SDS011;61637;47.760;-122.022;2023-03-24T08:02:01;19.6;;;13.4;;
73421;SDS011;61637;47.760;-122.022;2023-03-24T08:04:02;16.1;;;11.9;;
73421;SDS011;61637;47.760;-122.022;2023-03-24T08:06:01;17.6;;;11.4;;
73421;SDS011;61637;47.760;-122.022;2023-03-24T08:08:01;17.0;;;12.9;;
73421;SDS011;61637;47.760;-122.022;2023-03-24T08:10:02;15.1;;;12.4;;
73421;SDS011;61637;47.760;-122.022;2023-03-24T08:12:01;17.1;;;12.2;;
73421;SDS011;61637;47.760;-122.022;2023-03-24T08:14:01;17.1;;;12.2;;
73421;SDS011;61637;47.760;-122.022;2023-03-24T08:16:01;17.3;;;10.9;;
73421;SDS011;61637;47.760;-122.022;2023-03-24T08:18:01;18.0;;;11.4;;
73421;SDS011;61637;47.760;-122.022;2023-03-24T08:20:03;13.9;;;10.1;;
73421;SDS011;61637;47.760;-122.022;2023-03-24T08:22:01;14.9;;;10.7;;
73421;SDS011;61637;47.760;-122.022;2023-03-24T08:24:01;16.6;;;11.4;;
73421;SDS011;61637;47.760;-122.022;2023-03-24T08:26:01;17.4;;;12.0;;
73421;SDS011;61637;47.760;-122.022;2023-03-24T08:28:03;19.5;;;12.4;;
73421;SDS011;61637;47.760;-122.022;2023-03-24T08:30:01;16.0;;;12.8;;
73421;SDS011;61637;47.760;-122.022;2023-03-24T08:32:01;16.7;;;12.3;;
73421;SDS011;61637;47.760;-122.022;2023-03-24T08:34:02;15.1;;;11.3;;
73421;SDS011;61637;47.760;-122.022;2023-03-24T08:36:01;14.7;;;11.8;;
73421;SDS011;61637;47.760;-122.022;2023-03-24T08:38:01;15.6;;;10.4;;
73421;SDS011;61637;47.760;-122.022;2023-03-24T08:40:01;16.3;;;10.9;;
73421;SDS011;61637;47.760;-122.022;2023-03-24T08:42:01;14.6;;;10.7;;
73421;SDS011;61637;47.760;-122.022;2023-03-24T08:44:03;13.8;;;10.8;;
73421;SDS011;61637;47.760;-122.022;2023-03-24T08:46:02;14.1;;;9.7;;
73421;SDS011;61637;47.760;-122.022;2023-03-24T08:48:03;16.9;;;9.7;;
73421;SDS011;61637;47.760;-122.022;2023-03-24T08:50:01;16.2;;;10.7;;
73421;SDS011;61637;47.760;-122.022;2023-03-24T08:52:01;13.7;;;11.3;;
73421;SDS011;61637;47.760;-122.022;2023-03-24T08:54:01;16.2;;;11.9;;
73421;SDS011;61637;47.760;-122.022;2023-03-24T08:56:01;16.7;;;11.8;;
73421;SDS011;61637;47.760;-122.022;2023-03-24T08:58:01;16.7;;;12.6;;
73421;SDS011;61637;47.760;-122.022;2023-03-24T09:00:02;14.4;;;11.7;;
73421;SDS011;61637;47.760;-122.022;2023-03-24T09:02:01;14.4;;;11.7;;
73421;SDS011;61637;47.760;-122.022;2023-03-24T09:04:01;15.1;;;11.6;;
73421;SDS011;61637;47.760;-122.022;2023-03-24T09:06:01;12.4;;;8.2;;
73421;SDS011;61637;47.760;-122.022;2023-03-24T09:08:01;13.0;;;6.6;;
73421;SDS011;61637;47.760;-122.022;2023-03-24T09:10:02;13.9;;;7.4;;
73421;SDS011;61637;47.760;-122.022;2023-03-24T09:12:01;10.8;;;4.1;;
73421;SDS011;61637;47.760;-122.022;2023-03-24T09:14:01;8.4;;;4.9;;
73421;SDS011;61637;47.760;-122.022;2023-03-24T09:16:02;11.8;;;7.3;;
73421;SDS011;61637;47.760;-122.022;2023-03-24T09:18:01;15.4;;;11.6;;
73421;SDS011;61637;47.760;-122.022;2023-03-24T09:20:02;13.3;;;11.9;;
73421;SDS011;61637;47.760;-122.022;2023-03-24T09:22:01;11.8;;;10.6;;
73421;SDS011;61637;47.760;-122.022;2023-03-24T09:24:01;13.8;;;11.0;;
73421;SDS011;61637;47.760;-122.022;2023-03-24T09:26:02;11.3;;;9.2;;
73421;SDS011;61637;47.760;-122.022;2023-03-24T09:28:01;12.9;;;8.8;;
73421;SDS011;61637;47.760;-122.022;2023-03-24T09:30:05;11.4;;;6.6;;
73421;SDS011;61637;47.760;-122.022;2023-03-24T09:32:01;8.3;;;5.5;;
73421;SDS011;61637;47.760;-122.022;2023-03-24T09:34:01;9.1;;;5.2;;
73421;SDS011;61637;47.760;-122.022;2023-03-24T09:36:02;9.9;;;6.7;;
73421;SDS011;61637;47.760;-122.022;2023-03-24T09:38:01;11.0;;;6.4;;
73421;SDS011;61637;47.760;-122.022;2023-03-24T09:40:01;9.9;;;5.8;;
73421;SDS011;61637;47.760;-122.022;2023-03-24T09:42:02;12.4;;;10.9;;
73421;SDS011;61637;47.760;-122.022;2023-03-24T09:44:08;12.6;;;11.3;;
73421;SDS011;61637;47.760;-122.022;2023-03-24T09:46:03;12.3;;;11.0;;
73421;SDS011;61637;47.760;-122.022;2023-03-24T09:48:04;15.8;;;13.3;;
73421;SDS011;61637;47.760;-122.022;2023-03-24T09:50:07;14.5;;;13.0;;
73421;SDS011;61637;47.760;-122.022;2023-03-24T09:52:04;14.6;;;13.1;;
73421;SDS011;61637;47.760;-122.022;2023-03-24T09:54:10;14.5;;;13.0;;
73421;SDS011;61637;47.760;-122.022;2023-03-24T09:56:07;14.0;;;12.6;;
73421;SDS011;61637;47.760;-122.022;2023-03-24T09:58:05;14.1;;;12.6;;
73421;SDS011;61637;47.760;-122.022;2023-03-24T10:00:08;13.2;;;11.9;;
73421;SDS011;61637;47.760;-122.022;2023-03-24T10:02:10;13.7;;;12.4;;
73421;SDS011;61637;47.760;-122.022;2023-03-24T10:04:03;13.9;;;12.3;;
73421;SDS011;61637;47.760;-122.022;2023-03-24T10:06:08;15.6;;;13.3;;
73421;SDS011;61637;47.760;-122.022;2023-03-24T10:08:08;15.0;;;13.5;;
73421;SDS011;61637;47.760;-122.022;2023-03-24T10:10:02;15.8;;;12.8;;
73421;SDS011;61637;47.760;-122.022;2023-03-24T10:12:10;12.6;;;11.3;;
73421;SDS011;61637;47.760;-122.022;2023-03-24T10:14:12;13.8;;;10.7;;
73421;SDS011;61637;47.760;-122.022;2023-03-24T10:16:06;13.5;;;12.0;;
73421;SDS011;61637;47.760;-122.022;2023-03-24T10:18:13;14.8;;;12.3;;
73421;SDS011;61637;47.760;-122.022;2023-03-24T10:20:09;13.3;;;12.0;;
73421;SDS011;61637;47.760;-122.022;2023-03-24T10:22:08;13.9;;;12.5;;
73421;SDS011;61637;47.760;-122.022;2023-03-24T10:24:09;13.6;;;12.3;;
73421;SDS011;61637;47.760;-122.022;2023-03-24T10:26:06;13.9;;;12.6;;
73421;SDS011;61637;47.760;-122.022;2023-03-24T10:28:06;14.9;;;13.5;;
73421;SDS011;61637;47.760;-122.022;2023-03-24T10:30:07;14.1;;;12.7;;
73421;SDS011;61637;47.760;-122.022;2023-03-24T10:32:05;13.8;;;12.4;;
73421;SDS011;61637;47.760;-122.022;2023-03-24T10:34:01;14.7;;;13.3;;
73421;SDS011;61637;47.760;-122.022;2023-03-24T10:36:05;15.1;;;13.1;;
73421;SDS011;61637;47.760;-122.022;2023-03-24T10:38:04;14.0;;;12.7;;
73421;SDS011;61637;47.760;-122.022;2023-03-24T10:40:01;14.5;;;13.1;;
73421;SDS011;61637;47.760;-122.022;2023-03-24T10:42:01;15.3;;;13.8;;
73421;SDS011;61637;47.760;-122.022;2023-03-24T10:44:01;15.3;;;13.8;;
73421;SDS011;61637;47.760;-122.022;2023-03-24T10:46:01;15.3;;;13.8;;
73421;SDS011;61637;47.760;-122.022;2023-03-24T10:48:03;12.9;;;11.6;;
73421;SDS011;61637;47.760;-122.022;2023-03-24T10:50:05;13.9;;;12.6;;
73421;SDS011;61637;47.760;-122.022;2023-03-24T10:52:08;15.8;;;13.2;;
73421;SDS011;61637;47.760;-122.022;2023-03-24T10:54:10;14.7;;;13.3;;
73421;SDS011;61637;47.760;-122.022;2023-03-24T10:56:01;14.4;;;13.0;;
73421;SDS011;61637;47.760;-122.022;2023-03-24T10:58:02;14.6;;;13.1;;
73421;SDS011;61637;47.760;-122.022;2023-03-24T11:00:06;12.9;;;11.6;;
73421;SDS011;61637;47.760;-122.022;2023-03-24T11:02:15;11.8;;;10.6;;
73421;SDS011;61637;47.760;-122.022;2023-03-24T11:04:04;13.0;;;11.3;;
73421;SDS011;61637;47.760;-122.022;2023-03-24T11:06:03;14.4;;;10.3;;
73421;SDS011;61637;47.760;-122.022;2023-03-24T11:08:13;12.8;;;10.8;;
73421;SDS011;61637;47.760;-122.022;2023-03-24T11:10:06;10.7;;;9.6;;
73421;SDS011;61637;47.760;-122.022;2023-03-24T11:12:03;10.4;;;7.9;;
73421;SDS011;61637;47.760;-122.022;2023-03-24T11:14:02;11.1;;;9.8;;
73421;SDS011;61637;47.760;-122.022;2023-03-24T11:16:10;11.1;;;8.7;;
73421;SDS011;61637;47.760;-122.022;2023-03-24T11:18:13;9.5;;;8.5;;
73421;SDS011;61637;47.760;-122.022;2023-03-24T11:20:02;10.9;;;8.9;;
73421;SDS011;61637;47.760;-122.022;2023-03-24T11:22:03;9.3;;;6.6;;
73421;SDS011;61637;47.760;-122.022;2023-03-24T11:24:03;9.1;;;5.3;;
73421;SDS011;61637;47.760;-122.022;2023-03-24T11:26:04;7.0;;;3.6;;
73421;SDS011;61637;47.760;-122.022;2023-03-24T11:28:05;9.2;;;6.1;;
73421;SDS011;61637;47.760;-122.022;2023-03-24T11:30:01;9.2;;;5.7;;
73421;SDS011;61637;47.760;-122.022;2023-03-24T11:32:03;10.5;;;7.7;;
73421;SDS011;61637;47.760;-122.022;2023-03-24T11:34:05;10.1;;;8.3;;
73421;SDS011;61637;47.760;-122.022;2023-03-24T11:36:07;8.8;;;7.5;;
73421;SDS011;61637;47.760;-122.022;2023-03-24T11:38:03;10.0;;;8.5;;
73421;SDS011;61637;47.760;-122.022;2023-03-24T11:40:15;12.0;;;8.5;;
73421;SDS011;61637;47.760;-122.022;2023-03-24T11:42:10;12.5;;;11.2;;
73421;SDS011;61637;47.760;-122.022;2023-03-24T11:44:15;10.9;;;9.6;;
73421;SDS011;61637;47.760;-122.022;2023-03-24T11:46:06;12.1;;;10.9;;
73421;SDS011;61637;47.760;-122.022;2023-03-24T11:48:04;12.0;;;10.9;;